sensor_id;sensor_type;location;lat;lon;timestamp;P1;durP1;ratioP1;P2;durP2;ratioP2
43552;SDS011;29153;42.696;23.218;2022-12-29T00:00:59;37.08;;;17.25;;
43552;SDS011;29153;42.696;23.218;2022-12-29T00:03:27;35.38;;;17.65;;
43552;SDS011;29153;42.696;23.218;2022-12-29T00:05:55;37.17;;;18.05;;
43552;SDS011;29153;42.696;23.218;2022-12-29T00:08:23;37.40;;;17.30;;
43552;SDS011;29153;42.696;23.218;2022-12-29T00:10:53;40.12;;;19.15;;
43552;SDS011;29153;42.696;23.218;2022-12-29T00:13:21;33.00;;;17.45;;
43552;SDS011;29153;42.696;23.218;2022-12-29T00:16:06;33.65;;;17.40;;
43552;SDS011;29153;42.696;23.218;2022-12-29T00:18:34;46.70;;;20.43;;
43552;SDS011;29153;42.696;23.218;2022-12-29T00:21:01;38.48;;;18.48;;
43552;SDS011;29153;42.696;23.218;2022-12-29T00:23:47;38.92;;;19.60;;
43552;SDS011;29153;42.696;23.218;2022-12-29T00:26:32;41.23;;;18.02;;
43552;SDS011;29153;42.696;23.218;2022-12-29T00:29:17;37.85;;;18.73;;
43552;SDS011;29153;42.696;23.218;2022-12-29T00:32:04;38.15;;;17.85;;
43552;SDS011;29153;42.696;23.218;2022-12-29T00:34:51;40.55;;;20.20;;
43552;SDS011;29153;42.696;23.218;2022-12-29T00:37:41;43.58;;;20.37;;
43552;SDS011;29153;42.696;23.218;2022-12-29T00:40:28;45.05;;;21.87;;
43552;SDS011;29153;42.696;23.218;2022-12-29T00:43:13;40.00;;;20.77;;
43552;SDS011;29153;42.696;23.218;2022-12-29T00:45:59;42.85;;;19.90;;
43552;SDS011;29153;42.696;23.218;2022-12-29T00:48:26;38.83;;;18.82;;
43552;SDS011;29153;42.696;23.218;2022-12-29T00:51:12;38.48;;;17.35;;
43552;SDS011;29153;42.696;23.218;2022-12-29T00:53:39;40.85;;;19.87;;
43552;SDS011;29153;42.696;23.218;2022-12-29T00:56:07;36.65;;;18.42;;
43552;SDS011;29153;42.696;23.218;2022-12-29T00:58:35;37.20;;;17.37;;
43552;SDS011;29153;42.696;23.218;2022-12-29T01:01:03;34.55;;;17.87;;
43552;SDS011;29153;42.696;23.218;2022-12-29T01:03:32;39.23;;;18.57;;
43552;SDS011;29153;42.696;23.218;2022-12-29T01:06:01;40.00;;;18.32;;
43552;SDS011;29153;42.696;23.218;2022-12-29T01:08:29;37.93;;;18.37;;
43552;SDS011;29153;42.696;23.218;2022-12-29T01:11:01;35.88;;;18.30;;
43552;SDS011;29153;42.696;23.218;2022-12-29T01:13:27;38.85;;;18.65;;
43552;SDS011;29153;42.696;23.218;2022-12-29T01:15:55;40.48;;;18.45;;
43552;SDS011;29153;42.696;23.218;2022-12-29T01:18:23;35.03;;;17.90;;
43552;SDS011;29153;42.696;23.218;2022-12-29T01:20:58;34.60;;;17.90;;
43552;SDS011;29153;42.696;23.218;2022-12-29T01:23:28;38.08;;;18.07;;
43552;SDS011;29153;42.696;23.218;2022-12-29T01:25:56;39.05;;;17.80;;
43552;SDS011;29153;42.696;23.218;2022-12-29T01:28:23;38.15;;;18.15;;
43552;SDS011;29153;42.696;23.218;2022-12-29T01:30:51;38.75;;;18.17;;
43552;SDS011;29153;42.696;23.218;2022-12-29T01:33:18;41.65;;;18.20;;
43552;SDS011;29153;42.696;23.218;2022-12-29T01:35:46;38.65;;;17.48;;
43552;SDS011;29153;42.696;23.218;2022-12-29T01:38:13;36.88;;;17.40;;
43552;SDS011;29153;42.696;23.218;2022-12-29T01:40:44;31.12;;;15.80;;
43552;SDS011;29153;42.696;23.218;2022-12-29T01:43:13;34.78;;;17.12;;
43552;SDS011;29153;42.696;23.218;2022-12-29T01:45:50;36.25;;;17.45;;
43552;SDS011;29153;42.696;23.218;2022-12-29T01:48:19;51.88;;;21.93;;
43552;SDS011;29153;42.696;23.218;2022-12-29T01:50:50;69.07;;;27.05;;
43552;SDS011;29153;42.696;23.218;2022-12-29T01:53:20;57.43;;;24.52;;
43552;SDS011;29153;42.696;23.218;2022-12-29T01:55:55;43.50;;;20.05;;
43552;SDS011;29153;42.696;23.218;2022-12-29T01:58:26;35.15;;;17.48;;
43552;SDS011;29153;42.696;23.218;2022-12-29T02:00:55;37.28;;;17.48;;
43552;SDS011;29153;42.696;23.218;2022-12-29T02:03:23;37.95;;;17.70;;
43552;SDS011;29153;42.696;23.218;2022-12-29T02:08:24;39.00;;;17.85;;
43552;SDS011;29153;42.696;23.218;2022-12-29T02:10:58;36.55;;;18.35;;
43552;SDS011;29153;42.696;23.218;2022-12-29T02:13:27;35.15;;;17.87;;
43552;SDS011;29153;42.696;23.218;2022-12-29T02:16:12;36.35;;;18.05;;
43552;SDS011;29153;42.696;23.218;2022-12-29T02:30:08;36.80;;;16.97;;
43552;SDS011;29153;42.696;23.218;2022-12-29T02:33:00;31.93;;;15.88;;
43552;SDS011;29153;42.696;23.218;2022-12-29T02:38:38;39.30;;;17.82;;
43552;SDS011;29153;42.696;23.218;2022-12-29T02:43:54;38.60;;;17.80;;
43552;SDS011;29153;42.696;23.218;2022-12-29T02:51:55;35.20;;;17.55;;
43552;SDS011;29153;42.696;23.218;2022-12-29T02:54:30;36.33;;;18.00;;
43552;SDS011;29153;42.696;23.218;2022-12-29T03:00:04;36.90;;;17.92;;
43552;SDS011;29153;42.696;23.218;2022-12-29T03:05:12;36.48;;;17.70;;
43552;SDS011;29153;42.696;23.218;2022-12-29T03:07:49;40.63;;;19.27;;
43552;SDS011;29153;42.696;23.218;2022-12-29T03:10:41;33.60;;;16.25;;
43552;SDS011;29153;42.696;23.218;2022-12-29T03:13:21;37.88;;;18.15;;
43552;SDS011;29153;42.696;23.218;2022-12-29T03:16:28;37.20;;;17.87;;
43552;SDS011;29153;42.696;23.218;2022-12-29T03:19:02;32.33;;;17.52;;
43552;SDS011;29153;42.696;23.218;2022-12-29T03:21:49;33.33;;;17.37;;
43552;SDS011;29153;42.696;23.218;2022-12-29T03:24:32;35.78;;;16.73;;
43552;SDS011;29153;42.696;23.218;2022-12-29T03:27:03;36.63;;;17.30;;
43552;SDS011;29153;42.696;23.218;2022-12-29T03:29:34;29.72;;;15.75;;
43552;SDS011;29153;42.696;23.218;2022-12-29T03:32:03;31.75;;;15.40;;
43552;SDS011;29153;42.696;23.218;2022-12-29T03:34:33;27.75;;;15.32;;
43552;SDS011;29153;42.696;23.218;2022-12-29T03:37:10;35.20;;;16.65;;
43552;SDS011;29153;42.696;23.218;2022-12-29T03:39:39;30.50;;;15.10;;
43552;SDS011;29153;42.696;23.218;2022-12-29T03:42:12;29.92;;;14.35;;
43552;SDS011;29153;42.696;23.218;2022-12-29T03:44:42;30.00;;;15.30;;
43552;SDS011;29153;42.696;23.218;2022-12-29T03:47:11;34.63;;;15.10;;
43552;SDS011;29153;42.696;23.218;2022-12-29T03:49:40;30.75;;;14.93;;
43552;SDS011;29153;42.696;23.218;2022-12-29T03:52:07;30.77;;;14.78;;
43552;SDS011;29153;42.696;23.218;2022-12-29T03:54:35;32.13;;;15.48;;
43552;SDS011;29153;42.696;23.218;2022-12-29T03:57:02;32.40;;;14.58;;
43552;SDS011;29153;42.696;23.218;2022-12-29T03:59:30;31.85;;;14.95;;
43552;SDS011;29153;42.696;23.218;2022-12-29T04:01:57;30.88;;;15.10;;
43552;SDS011;29153;42.696;23.218;2022-12-29T04:04:25;32.33;;;15.70;;
43552;SDS011;29153;42.696;23.218;2022-12-29T04:06:52;30.08;;;14.78;;
43552;SDS011;29153;42.696;23.218;2022-12-29T04:09:20;28.30;;;14.28;;
43552;SDS011;29153;42.696;23.218;2022-12-29T04:11:47;31.12;;;14.43;;
43552;SDS011;29153;42.696;23.218;2022-12-29T04:14:15;30.02;;;14.58;;
43552;SDS011;29153;42.696;23.218;2022-12-29T04:16:43;33.78;;;15.95;;
43552;SDS011;29153;42.696;23.218;2022-12-29T04:19:10;27.58;;;15.08;;
43552;SDS011;29153;42.696;23.218;2022-12-29T04:21:38;34.00;;;14.43;;
43552;SDS011;29153;42.696;23.218;2022-12-29T04:24:05;35.33;;;16.45;;
43552;SDS011;29153;42.696;23.218;2022-12-29T04:26:33;30.23;;;15.18;;
43552;SDS011;29153;42.696;23.218;2022-12-29T04:29:01;40.43;;;17.75;;
43552;SDS011;29153;42.696;23.218;2022-12-29T04:31:28;36.88;;;16.40;;
43552;SDS011;29153;42.696;23.218;2022-12-29T04:33:56;38.30;;;17.55;;
43552;SDS011;29153;42.696;23.218;2022-12-29T04:36:25;37.10;;;17.17;;
43552;SDS011;29153;42.696;23.218;2022-12-29T04:38:53;36.70;;;16.42;;
43552;SDS011;29153;42.696;23.218;2022-12-29T04:41:20;36.08;;;17.25;;
43552;SDS011;29153;42.696;23.218;2022-12-29T04:43:48;37.58;;;17.00;;
43552;SDS011;29153;42.696;23.218;2022-12-29T04:46:16;32.50;;;16.17;;
43552;SDS011;29153;42.696;23.218;2022-12-29T04:48:44;35.98;;;16.00;;
43552;SDS011;29153;42.696;23.218;2022-12-29T04:51:11;34.73;;;16.12;;
43552;SDS011;29153;42.696;23.218;2022-12-29T04:53:39;38.02;;;16.07;;
43552;SDS011;29153;42.696;23.218;2022-12-29T04:56:06;35.58;;;16.77;;
43552;SDS011;29153;42.696;23.218;2022-12-29T04:58:34;36.77;;;16.65;;
43552;SDS011;29153;42.696;23.218;2022-12-29T05:01:02;37.33;;;17.20;;
43552;SDS011;29153;42.696;23.218;2022-12-29T05:03:30;35.58;;;15.98;;
43552;SDS011;29153;42.696;23.218;2022-12-29T05:05:57;46.02;;;18.48;;
43552;SDS011;29153;42.696;23.218;2022-12-29T05:08:25;34.20;;;16.85;;
43552;SDS011;29153;42.696;23.218;2022-12-29T05:10:52;36.93;;;16.55;;
43552;SDS011;29153;42.696;23.218;2022-12-29T05:13:20;36.15;;;17.42;;
43552;SDS011;29153;42.696;23.218;2022-12-29T05:15:49;39.33;;;17.87;;
43552;SDS011;29153;42.696;23.218;2022-12-29T05:18:17;35.80;;;17.00;;
43552;SDS011;29153;42.696;23.218;2022-12-29T05:20:45;40.45;;;16.57;;
43552;SDS011;29153;42.696;23.218;2022-12-29T05:23:13;38.30;;;16.77;;
43552;SDS011;29153;42.696;23.218;2022-12-29T05:25:42;40.85;;;19.12;;
43552;SDS011;29153;42.696;23.218;2022-12-29T05:28:12;35.25;;;16.45;;
43552;SDS011;29153;42.696;23.218;2022-12-29T05:30:39;32.15;;;15.93;;
43552;SDS011;29153;42.696;23.218;2022-12-29T05:33:07;34.03;;;16.55;;
43552;SDS011;29153;42.696;23.218;2022-12-29T05:35:36;34.98;;;17.15;;
43552;SDS011;29153;42.696;23.218;2022-12-29T05:38:04;32.65;;;16.20;;
43552;SDS011;29153;42.696;23.218;2022-12-29T05:40:31;34.15;;;17.10;;
43552;SDS011;29153;42.696;23.218;2022-12-29T05:42:59;40.60;;;17.65;;
43552;SDS011;29153;42.696;23.218;2022-12-29T05:45:26;42.10;;;18.17;;
43552;SDS011;29153;42.696;23.218;2022-12-29T05:47:54;37.33;;;17.27;;
43552;SDS011;29153;42.696;23.218;2022-12-29T05:50:21;37.17;;;17.67;;
43552;SDS011;29153;42.696;23.218;2022-12-29T05:52:49;38.55;;;17.73;;
43552;SDS011;29153;42.696;23.218;2022-12-29T05:55:16;37.53;;;17.02;;
43552;SDS011;29153;42.696;23.218;2022-12-29T05:57:44;36.03;;;17.37;;
43552;SDS011;29153;42.696;23.218;2022-12-29T06:00:12;35.48;;;16.80;;
43552;SDS011;29153;42.696;23.218;2022-12-29T06:02:40;38.05;;;16.57;;
43552;SDS011;29153;42.696;23.218;2022-12-29T06:05:07;39.10;;;17.42;;
43552;SDS011;29153;42.696;23.218;2022-12-29T06:16:55;38.67;;;17.48;;
43552;SDS011;29153;42.696;23.218;2022-12-29T06:22:31;35.10;;;15.93;;
43552;SDS011;29153;42.696;23.218;2022-12-29T06:25:32;31.60;;;16.02;;
43552;SDS011;29153;42.696;23.218;2022-12-29T06:28:02;35.45;;;16.85;;
43552;SDS011;29153;42.696;23.218;2022-12-29T06:30:31;32.10;;;15.70;;
43552;SDS011;29153;42.696;23.218;2022-12-29T06:32:59;38.13;;;17.70;;
43552;SDS011;29153;42.696;23.218;2022-12-29T06:35:26;32.53;;;16.23;;
43552;SDS011;29153;42.696;23.218;2022-12-29T06:37:54;39.38;;;18.10;;
43552;SDS011;29153;42.696;23.218;2022-12-29T06:40:21;37.73;;;18.25;;
43552;SDS011;29153;42.696;23.218;2022-12-29T06:42:49;35.23;;;17.70;;
43552;SDS011;29153;42.696;23.218;2022-12-29T06:45:17;39.23;;;18.17;;
43552;SDS011;29153;42.696;23.218;2022-12-29T06:47:44;38.33;;;18.10;;
43552;SDS011;29153;42.696;23.218;2022-12-29T06:50:12;41.80;;;18.05;;
43552;SDS011;29153;42.696;23.218;2022-12-29T06:52:39;36.75;;;17.73;;
43552;SDS011;29153;42.696;23.218;2022-12-29T06:55:07;36.85;;;17.82;;
43552;SDS011;29153;42.696;23.218;2022-12-29T06:57:35;37.08;;;17.57;;
43552;SDS011;29153;42.696;23.218;2022-12-29T07:00:03;37.30;;;18.45;;
43552;SDS011;29153;42.696;23.218;2022-12-29T07:02:31;39.30;;;19.60;;
43552;SDS011;29153;42.696;23.218;2022-12-29T07:04:58;35.08;;;18.00;;
43552;SDS011;29153;42.696;23.218;2022-12-29T07:07:26;37.58;;;17.15;;
43552;SDS011;29153;42.696;23.218;2022-12-29T07:09:53;35.13;;;16.60;;
43552;SDS011;29153;42.696;23.218;2022-12-29T07:12:21;46.05;;;20.95;;
43552;SDS011;29153;42.696;23.218;2022-12-29T07:14:48;35.78;;;17.35;;
43552;SDS011;29153;42.696;23.218;2022-12-29T07:17:15;36.48;;;18.52;;
43552;SDS011;29153;42.696;23.218;2022-12-29T07:19:43;37.55;;;17.42;;
43552;SDS011;29153;42.696;23.218;2022-12-29T07:22:10;36.40;;;16.73;;
43552;SDS011;29153;42.696;23.218;2022-12-29T07:24:38;38.98;;;18.62;;
43552;SDS011;29153;42.696;23.218;2022-12-29T07:27:05;37.85;;;18.45;;
43552;SDS011;29153;42.696;23.218;2022-12-29T07:29:33;37.48;;;17.65;;
43552;SDS011;29153;42.696;23.218;2022-12-29T07:32:02;39.90;;;18.30;;
43552;SDS011;29153;42.696;23.218;2022-12-29T07:34:30;39.27;;;18.48;;
43552;SDS011;29153;42.696;23.218;2022-12-29T07:36:58;37.95;;;17.27;;
43552;SDS011;29153;42.696;23.218;2022-12-29T07:39:25;30.75;;;16.10;;
43552;SDS011;29153;42.696;23.218;2022-12-29T07:41:53;33.53;;;18.30;;
43552;SDS011;29153;42.696;23.218;2022-12-29T07:44:20;37.90;;;19.25;;
43552;SDS011;29153;42.696;23.218;2022-12-29T07:46:48;40.92;;;20.20;;
43552;SDS011;29153;42.696;23.218;2022-12-29T07:49:15;38.00;;;18.32;;
43552;SDS011;29153;42.696;23.218;2022-12-29T07:51:43;34.30;;;16.45;;
43552;SDS011;29153;42.696;23.218;2022-12-29T07:54:11;29.50;;;15.48;;
43552;SDS011;29153;42.696;23.218;2022-12-29T07:56:38;27.77;;;14.55;;
43552;SDS011;29153;42.696;23.218;2022-12-29T07:59:06;35.70;;;16.60;;
43552;SDS011;29153;42.696;23.218;2022-12-29T08:01:33;31.05;;;15.25;;
43552;SDS011;29153;42.696;23.218;2022-12-29T08:04:01;35.50;;;16.12;;
43552;SDS011;29153;42.696;23.218;2022-12-29T08:06:28;35.00;;;17.77;;
43552;SDS011;29153;42.696;23.218;2022-12-29T08:08:56;41.10;;;17.80;;
43552;SDS011;29153;42.696;23.218;2022-12-29T08:11:25;45.60;;;22.13;;
43552;SDS011;29153;42.696;23.218;2022-12-29T08:13:53;31.42;;;16.07;;
43552;SDS011;29153;42.696;23.218;2022-12-29T08:16:20;35.05;;;19.17;;
43552;SDS011;29153;42.696;23.218;2022-12-29T08:18:48;29.05;;;15.55;;
43552;SDS011;29153;42.696;23.218;2022-12-29T08:21:15;28.67;;;14.85;;
43552;SDS011;29153;42.696;23.218;2022-12-29T08:23:43;27.42;;;13.62;;
43552;SDS011;29153;42.696;23.218;2022-12-29T08:26:10;25.50;;;13.22;;
43552;SDS011;29153;42.696;23.218;2022-12-29T08:28:38;26.27;;;15.05;;
43552;SDS011;29153;42.696;23.218;2022-12-29T08:31:05;27.02;;;14.03;;
43552;SDS011;29153;42.696;23.218;2022-12-29T08:33:33;27.20;;;14.25;;
43552;SDS011;29153;42.696;23.218;2022-12-29T08:36:01;28.80;;;14.80;;
43552;SDS011;29153;42.696;23.218;2022-12-29T08:38:29;29.57;;;14.78;;
43552;SDS011;29153;42.696;23.218;2022-12-29T08:40:57;27.42;;;14.83;;
43552;SDS011;29153;42.696;23.218;2022-12-29T08:43:27;32.00;;;15.45;;
43552;SDS011;29153;42.696;23.218;2022-12-29T08:45:57;28.35;;;14.53;;
43552;SDS011;29153;42.696;23.218;2022-12-29T08:48:25;27.00;;;13.30;;
43552;SDS011;29153;42.696;23.218;2022-12-29T08:50:53;33.95;;;17.02;;
43552;SDS011;29153;42.696;23.218;2022-12-29T08:53:21;31.42;;;16.05;;
43552;SDS011;29153;42.696;23.218;2022-12-29T08:55:54;30.15;;;15.10;;
43552;SDS011;29153;42.696;23.218;2022-12-29T08:58:22;31.07;;;16.23;;
43552;SDS011;29153;42.696;23.218;2022-12-29T09:00:51;38.78;;;16.23;;
43552;SDS011;29153;42.696;23.218;2022-12-29T09:03:20;32.95;;;15.43;;
43552;SDS011;29153;42.696;23.218;2022-12-29T09:05:49;28.52;;;14.68;;
43552;SDS011;29153;42.696;23.218;2022-12-29T09:08:18;26.62;;;13.68;;
43552;SDS011;29153;42.696;23.218;2022-12-29T09:10:46;27.67;;;14.10;;
43552;SDS011;29153;42.696;23.218;2022-12-29T09:13:14;24.60;;;12.68;;
43552;SDS011;29153;42.696;23.218;2022-12-29T09:15:42;22.07;;;11.48;;
43552;SDS011;29153;42.696;23.218;2022-12-29T09:18:10;27.22;;;13.88;;
43552;SDS011;29153;42.696;23.218;2022-12-29T09:20:38;25.50;;;12.28;;
43552;SDS011;29153;42.696;23.218;2022-12-29T09:23:05;22.25;;;9.90;;
43552;SDS011;29153;42.696;23.218;2022-12-29T09:25:33;19.20;;;11.05;;
43552;SDS011;29153;42.696;23.218;2022-12-29T09:28:00;23.07;;;11.90;;
43552;SDS011;29153;42.696;23.218;2022-12-29T09:30:30;28.17;;;13.60;;
43552;SDS011;29153;42.696;23.218;2022-12-29T09:32:57;24.65;;;12.28;;
43552;SDS011;29153;42.696;23.218;2022-12-29T09:35:25;22.25;;;11.75;;
43552;SDS011;29153;42.696;23.218;2022-12-29T09:37:52;27.37;;;13.83;;
43552;SDS011;29153;42.696;23.218;2022-12-29T09:40:25;22.87;;;11.33;;
43552;SDS011;29153;42.696;23.218;2022-12-29T09:45:59;31.68;;;16.62;;
43552;SDS011;29153;42.696;23.218;2022-12-29T09:48:27;29.42;;;13.85;;
43552;SDS011;29153;42.696;23.218;2022-12-29T09:50:57;26.25;;;12.63;;
43552;SDS011;29153;42.696;23.218;2022-12-29T09:53:31;23.73;;;12.18;;
43552;SDS011;29153;42.696;23.218;2022-12-29T09:56:15;24.65;;;12.93;;
43552;SDS011;29153;42.696;23.218;2022-12-29T09:58:49;22.77;;;11.95;;
43552;SDS011;29153;42.696;23.218;2022-12-29T10:01:23;27.45;;;13.48;;
43552;SDS011;29153;42.696;23.218;2022-12-29T10:03:52;29.85;;;13.88;;
43552;SDS011;29153;42.696;23.218;2022-12-29T10:14:49;23.10;;;11.35;;
43552;SDS011;29153;42.696;23.218;2022-12-29T10:25:24;20.45;;;10.25;;
43552;SDS011;29153;42.696;23.218;2022-12-29T10:27:53;26.57;;;12.43;;
43552;SDS011;29153;42.696;23.218;2022-12-29T10:30:23;23.00;;;10.70;;
43552;SDS011;29153;42.696;23.218;2022-12-29T10:32:58;22.15;;;12.03;;
43552;SDS011;29153;42.696;23.218;2022-12-29T10:35:31;21.93;;;11.30;;
43552;SDS011;29153;42.696;23.218;2022-12-29T10:41:00;25.50;;;12.55;;
43552;SDS011;29153;42.696;23.218;2022-12-29T10:43:30;25.02;;;12.20;;
43552;SDS011;29153;42.696;23.218;2022-12-29T10:46:02;24.77;;;12.33;;
43552;SDS011;29153;42.696;23.218;2022-12-29T10:48:33;25.05;;;12.40;;
43552;SDS011;29153;42.696;23.218;2022-12-29T10:51:02;23.45;;;12.33;;
43552;SDS011;29153;42.696;23.218;2022-12-29T10:53:40;26.45;;;11.88;;
43552;SDS011;29153;42.696;23.218;2022-12-29T10:58:56;24.77;;;12.88;;
43552;SDS011;29153;42.696;23.218;2022-12-29T11:01:28;28.87;;;12.95;;
43552;SDS011;29153;42.696;23.218;2022-12-29T11:04:03;25.37;;;12.68;;
43552;SDS011;29153;42.696;23.218;2022-12-29T11:06:36;38.17;;;18.12;;
43552;SDS011;29153;42.696;23.218;2022-12-29T11:09:14;24.72;;;12.37;;
43552;SDS011;29153;42.696;23.218;2022-12-29T11:11:43;38.60;;;21.55;;
43552;SDS011;29153;42.696;23.218;2022-12-29T11:14:30;33.13;;;16.82;;
43552;SDS011;29153;42.696;23.218;2022-12-29T11:16:56;28.77;;;15.78;;
43552;SDS011;29153;42.696;23.218;2022-12-29T11:19:20;31.68;;;14.58;;
43552;SDS011;29153;42.696;23.218;2022-12-29T11:21:49;30.55;;;14.83;;
43552;SDS011;29153;42.696;23.218;2022-12-29T11:24:25;32.42;;;15.68;;
43552;SDS011;29153;42.696;23.218;2022-12-29T11:26:55;32.48;;;16.10;;
43552;SDS011;29153;42.696;23.218;2022-12-29T11:29:29;39.20;;;20.02;;
43552;SDS011;29153;42.696;23.218;2022-12-29T11:31:57;75.78;;;35.00;;
43552;SDS011;29153;42.696;23.218;2022-12-29T11:34:26;36.63;;;19.55;;
43552;SDS011;29153;42.696;23.218;2022-12-29T11:37:05;36.75;;;18.85;;
43552;SDS011;29153;42.696;23.218;2022-12-29T11:42:17;44.45;;;19.80;;
43552;SDS011;29153;42.696;23.218;2022-12-29T11:44:43;39.85;;;19.55;;
43552;SDS011;29153;42.696;23.218;2022-12-29T11:47:23;40.83;;;20.57;;
43552;SDS011;29153;42.696;23.218;2022-12-29T11:49:56;36.58;;;19.32;;
43552;SDS011;29153;42.696;23.218;2022-12-29T11:52:26;38.45;;;19.20;;
43552;SDS011;29153;42.696;23.218;2022-12-29T11:54:58;39.35;;;19.90;;
43552;SDS011;29153;42.696;23.218;2022-12-29T11:57:28;39.40;;;19.70;;
43552;SDS011;29153;42.696;23.218;2022-12-29T11:59:57;34.03;;;16.70;;
43552;SDS011;29153;42.696;23.218;2022-12-29T12:02:40;36.48;;;17.75;;
43552;SDS011;29153;42.696;23.218;2022-12-29T12:08:03;27.87;;;14.30;;
43552;SDS011;29153;42.696;23.218;2022-12-29T12:10:30;29.70;;;13.98;;
43552;SDS011;29153;42.696;23.218;2022-12-29T12:15:36;42.83;;;17.07;;
43552;SDS011;29153;42.696;23.218;2022-12-29T12:18:12;29.60;;;12.73;;
43552;SDS011;29153;42.696;23.218;2022-12-29T12:20:57;23.83;;;11.38;;
43552;SDS011;29153;42.696;23.218;2022-12-29T12:23:39;32.50;;;15.18;;
43552;SDS011;29153;42.696;23.218;2022-12-29T12:26:14;22.80;;;12.35;;
43552;SDS011;29153;42.696;23.218;2022-12-29T12:28:48;22.82;;;11.18;;
43552;SDS011;29153;42.696;23.218;2022-12-29T12:34:18;24.75;;;12.23;;
43552;SDS011;29153;42.696;23.218;2022-12-29T12:39:43;28.73;;;14.18;;
43552;SDS011;29153;42.696;23.218;2022-12-29T12:45:16;27.17;;;13.40;;
43552;SDS011;29153;42.696;23.218;2022-12-29T12:50:26;24.37;;;12.50;;
43552;SDS011;29153;42.696;23.218;2022-12-29T12:58:03;25.12;;;12.28;;
43552;SDS011;29153;42.696;23.218;2022-12-29T13:00:37;24.77;;;12.80;;
43552;SDS011;29153;42.696;23.218;2022-12-29T13:03:12;33.42;;;16.15;;
43552;SDS011;29153;42.696;23.218;2022-12-29T13:08:43;28.62;;;13.35;;
43552;SDS011;29153;42.696;23.218;2022-12-29T13:19:32;36.42;;;18.87;;
43552;SDS011;29153;42.696;23.218;2022-12-29T13:22:02;37.17;;;18.30;;
43552;SDS011;29153;42.696;23.218;2022-12-29T13:30:19;40.75;;;19.90;;
43552;SDS011;29153;42.696;23.218;2022-12-29T13:38:14;50.45;;;22.02;;
43552;SDS011;29153;42.696;23.218;2022-12-29T13:40:46;60.92;;;26.45;;
43552;SDS011;29153;42.696;23.218;2022-12-29T13:43:19;46.08;;;21.12;;
43552;SDS011;29153;42.696;23.218;2022-12-29T13:45:55;34.20;;;16.97;;
43552;SDS011;29153;42.696;23.218;2022-12-29T13:48:20;37.90;;;17.85;;
43552;SDS011;29153;42.696;23.218;2022-12-29T13:50:53;34.27;;;18.73;;
43552;SDS011;29153;42.696;23.218;2022-12-29T13:53:32;43.58;;;21.62;;
43552;SDS011;29153;42.696;23.218;2022-12-29T13:56:07;33.45;;;17.87;;
43552;SDS011;29153;42.696;23.218;2022-12-29T14:03:52;61.23;;;28.70;;
43552;SDS011;29153;42.696;23.218;2022-12-29T14:06:19;61.30;;;25.48;;
43552;SDS011;29153;42.696;23.218;2022-12-29T14:08:57;56.90;;;27.48;;
43552;SDS011;29153;42.696;23.218;2022-12-29T14:11:31;57.23;;;27.02;;
43552;SDS011;29153;42.696;23.218;2022-12-29T14:14:45;53.83;;;26.05;;
43552;SDS011;29153;42.696;23.218;2022-12-29T14:16:42;57.05;;;25.52;;
43552;SDS011;29153;42.696;23.218;2022-12-29T14:19:13;59.75;;;24.60;;
43552;SDS011;29153;42.696;23.218;2022-12-29T14:34:57;58.70;;;28.55;;
43552;SDS011;29153;42.696;23.218;2022-12-29T14:37:29;54.35;;;26.23;;
43552;SDS011;29153;42.696;23.218;2022-12-29T14:42:48;42.08;;;23.10;;
43552;SDS011;29153;42.696;23.218;2022-12-29T14:47:48;40.23;;;21.37;;
43552;SDS011;29153;42.696;23.218;2022-12-29T14:53:10;45.40;;;20.70;;
43552;SDS011;29153;42.696;23.218;2022-12-29T14:55:41;46.18;;;21.48;;
43552;SDS011;29153;42.696;23.218;2022-12-29T14:58:14;46.30;;;22.95;;
43552;SDS011;29153;42.696;23.218;2022-12-29T15:00:44;42.60;;;22.32;;
43552;SDS011;29153;42.696;23.218;2022-12-29T15:03:28;45.58;;;21.48;;
43552;SDS011;29153;42.696;23.218;2022-12-29T15:06:05;47.00;;;22.62;;
43552;SDS011;29153;42.696;23.218;2022-12-29T15:11:22;50.75;;;22.55;;
43552;SDS011;29153;42.696;23.218;2022-12-29T15:13:51;51.73;;;23.20;;
43552;SDS011;29153;42.696;23.218;2022-12-29T15:16:29;54.50;;;22.40;;
43552;SDS011;29153;42.696;23.218;2022-12-29T15:19:20;51.18;;;22.80;;
43552;SDS011;29153;42.696;23.218;2022-12-29T15:21:49;54.00;;;24.27;;
43552;SDS011;29153;42.696;23.218;2022-12-29T15:24:17;62.90;;;28.02;;
43552;SDS011;29153;42.696;23.218;2022-12-29T15:26:49;64.80;;;25.68;;
43552;SDS011;29153;42.696;23.218;2022-12-29T15:29:32;53.90;;;23.42;;
43552;SDS011;29153;42.696;23.218;2022-12-29T15:32:02;61.25;;;25.32;;
43552;SDS011;29153;42.696;23.218;2022-12-29T15:34:31;46.80;;;22.45;;
43552;SDS011;29153;42.696;23.218;2022-12-29T15:36:59;49.27;;;22.13;;
43552;SDS011;29153;42.696;23.218;2022-12-29T15:39:29;49.80;;;23.35;;
43552;SDS011;29153;42.696;23.218;2022-12-29T15:42:20;47.13;;;21.00;;
43552;SDS011;29153;42.696;23.218;2022-12-29T15:44:46;48.58;;;21.30;;
43552;SDS011;29153;42.696;23.218;2022-12-29T15:47:17;51.10;;;23.85;;
43552;SDS011;29153;42.696;23.218;2022-12-29T15:49:48;48.73;;;22.95;;
43552;SDS011;29153;42.696;23.218;2022-12-29T15:52:22;46.35;;;22.52;;
43552;SDS011;29153;42.696;23.218;2022-12-29T15:54:51;54.05;;;21.62;;
43552;SDS011;29153;42.696;23.218;2022-12-29T15:57:24;43.80;;;20.17;;
43552;SDS011;29153;42.696;23.218;2022-12-29T15:59:53;43.85;;;19.70;;
43552;SDS011;29153;42.696;23.218;2022-12-29T16:02:22;43.50;;;21.12;;
43552;SDS011;29153;42.696;23.218;2022-12-29T16:04:50;43.42;;;20.55;;
43552;SDS011;29153;42.696;23.218;2022-12-29T16:07:30;38.88;;;19.15;;
43552;SDS011;29153;42.696;23.218;2022-12-29T16:09:59;38.35;;;17.37;;
43552;SDS011;29153;42.696;23.218;2022-12-29T16:12:32;38.63;;;17.50;;
43552;SDS011;29153;42.696;23.218;2022-12-29T16:15:03;42.17;;;19.10;;
43552;SDS011;29153;42.696;23.218;2022-12-29T16:17:34;36.20;;;17.62;;
43552;SDS011;29153;42.696;23.218;2022-12-29T16:20:15;38.40;;;18.25;;
43552;SDS011;29153;42.696;23.218;2022-12-29T16:22:47;40.70;;;16.95;;
43552;SDS011;29153;42.696;23.218;2022-12-29T16:27:47;45.63;;;20.60;;
43552;SDS011;29153;42.696;23.218;2022-12-29T16:32:48;35.20;;;16.35;;
43552;SDS011;29153;42.696;23.218;2022-12-29T16:35:19;36.53;;;16.97;;
43552;SDS011;29153;42.696;23.218;2022-12-29T16:37:49;35.08;;;16.80;;
43552;SDS011;29153;42.696;23.218;2022-12-29T16:40:38;35.75;;;16.02;;
43552;SDS011;29153;42.696;23.218;2022-12-29T16:48:28;38.17;;;16.52;;
43552;SDS011;29153;42.696;23.218;2022-12-29T16:51:03;38.48;;;16.60;;
43552;SDS011;29153;42.696;23.218;2022-12-29T16:53:39;39.00;;;18.42;;
43552;SDS011;29153;42.696;23.218;2022-12-29T16:56:16;37.73;;;18.92;;
43552;SDS011;29153;42.696;23.218;2022-12-29T16:58:45;42.10;;;18.77;;
43552;SDS011;29153;42.696;23.218;2022-12-29T17:01:19;37.58;;;18.20;;
43552;SDS011;29153;42.696;23.218;2022-12-29T17:03:49;42.78;;;18.92;;
43552;SDS011;29153;42.696;23.218;2022-12-29T17:06:19;37.83;;;17.52;;